Time;durP1;ratioP1;P1;durP2;ratioP2;P2;SDS_P1;SDS_P2;PMS_P1;PMS_P2;Temp;Humidity;BMP_temperature;BMP_pressure;BME280_temperature;BME280_humidity;BME280_pressure;Samples;Min_cycle;Max_cycle;Signal;HPM_P1;HPM_P2
2023/09/29 00:01:25;;;;;;;6.45;3.95;;;17.00;91.50;;;;;;5003447;28;20045;-68
2023/09/29 00:03:51;;;;;;;8.93;4.50;;;17.00;91.50;;;;;;4997416;28;20117;-68
2023/09/29 00:06:16;;;;;;;9.05;4.25;;;17.00;91.60;;;;;;4994812;28;20039;-71
2023/09/29 00:08:45;;;;;;;7.97;4.35;;;17.00;91.50;;;;;;5006257;28;20035;-68
2023/09/29 00:11:12;;;;;;;7.90;4.25;;;17.00;91.40;;;;;;5002017;28;20113;-68
2023/09/29 00:13:38;;;;;;;10.00;4.80;;;17.00;91.30;;;;;;5006227;28;20037;-68
2023/09/29 00:16:03;;;;;;;8.98;4.43;;;17.00;91.60;;;;;;4996955;28;20038;-69
2023/09/29 00:18:30;;;;;;;9.35;4.43;;;17.00;91.50;;;;;;5007750;28;20101;-68
2023/09/29 00:20:55;;;;;;;10.15;4.65;;;17.00;91.70;;;;;;5006844;28;20034;-68
2023/09/29 00:23:21;;;;;;;11.00;4.78;;;17.00;91.50;;;;;;5007961;28;20685;-69
2023/09/29 00:25:46;;;;;;;9.25;4.47;;;17.00;91.40;;;;;;5010858;28;20061;-68
2023/09/29 00:28:12;;;;;;;10.93;5.13;;;17.00;91.30;;;;;;4997972;28;20049;-70
2023/09/29 00:30:37;;;;;;;7.18;4.40;;;17.00;91.30;;;;;;5004701;28;20048;-68
2023/09/29 00:33:03;;;;;;;9.90;4.68;;;17.00;91.20;;;;;;5009846;28;20429;-71
2023/09/29 00:35:29;;;;;;;7.60;5.07;;;17.00;91.50;;;;;;5008028;28;20368;-69
2023/09/29 00:37:56;;;;;;;13.63;5.13;;;17.00;91.40;;;;;;5010448;28;20038;-68
2023/09/29 00:40:22;;;;;;;10.02;5.32;;;17.00;91.40;;;;;;5002653;28;20112;-70
2023/09/29 00:42:48;;;;;;;9.27;5.10;;;17.00;91.30;;;;;;4996938;28;20045;-68
2023/09/29 00:45:16;;;;;;;10.13;4.93;;;17.00;91.40;;;;;;5004345;28;20029;-69
2023/09/29 00:47:45;;;;;;;9.55;5.13;;;17.00;91.30;;;;;;5011835;28;20080;-69
2023/09/29 00:50:11;;;;;;;9.90;4.95;;;17.00;91.30;;;;;;5008867;28;20141;-68
2023/09/29 00:52:38;;;;;;;8.00;5.50;;;16.90;91.20;;;;;;5008033;28;20029;-70
2023/09/29 00:55:11;;;;;;;9.52;6.03;;;17.00;91.40;;;;;;4996643;28;20022;-68
2023/09/29 00:57:39;;;;;;;8.50;5.38;;;17.00;91.50;;;;;;5006044;28;20038;-70
2023/09/29 01:00:14;;;;;;;7.97;5.45;;;16.90;91.30;;;;;;5001366;28;20045;-68
2023/09/29 01:02:40;;;;;;;8.50;5.28;;;17.00;91.20;;;;;;5006943;28;20034;-69
2023/09/29 01:05:06;;;;;;;7.47;4.80;;;17.00;91.20;;;;;;5004372;28;20040;-68
2023/09/29 01:07:31;;;;;;;9.73;5.15;;;17.00;91.20;;;;;;5007315;28;20038;-69
2023/09/29 01:09:57;;;;;;;10.63;5.50;;;17.00;91.30;;;;;;5006223;28;20460;-68
2023/09/29 01:12:29;;;;;;;8.77;4.78;;;17.00;91.20;;;;;;5008503;28;20072;-71
2023/09/29 01:14:54;;;;;;;9.30;5.30;;;17.00;91.30;;;;;;5010914;28;20360;-69
2023/09/29 01:17:20;;;;;;;9.45;4.80;;;17.00;91.10;;;;;;5010836;28;20037;-68
2023/09/29 01:19:48;;;;;;;11.98;5.70;;;17.00;91.10;;;;;;5007837;28;20049;-69
2023/09/29 01:22:14;;;;;;;10.00;5.40;;;16.90;91.20;;;;;;5003736;28;20023;-68
2023/09/29 01:24:39;;;;;;;8.23;5.35;;;17.00;91.40;;;;;;5005302;28;20037;-68
2023/09/29 01:27:05;;;;;;;10.63;5.53;;;16.90;91.10;;;;;;5003103;28;20101;-69
2023/09/29 01:29:31;;;;;;;9.45;5.65;;;16.90;91.10;;;;;;5003290;28;20076;-69
2023/09/29 01:31:56;;;;;;;11.15;5.32;;;16.90;91.30;;;;;;5007690;28;20419;-68
2023/09/29 01:34:24;;;;;;;9.63;5.57;;;16.90;91.50;;;;;;5009030;28;20026;-69
2023/09/29 01:36:49;;;;;;;11.82;5.40;;;16.90;91.40;;;;;;5003433;28;20521;-69
2023/09/29 01:39:16;;;;;;;12.63;5.93;;;16.90;91.40;;;;;;5012646;28;20350;-68
2023/09/29 01:41:43;;;;;;;12.07;5.72;;;16.90;91.10;;;;;;5011717;28;20441;-70
2023/09/29 01:44:09;;;;;;;11.15;5.78;;;16.90;91.30;;;;;;5010944;28;20021;-68
2023/09/29 01:46:34;;;;;;;9.43;5.70;;;17.00;91.30;;;;;;5011854;28;20041;-69
2023/09/29 01:49:00;;;;;;;11.00;5.50;;;16.90;91.20;;;;;;5009375;28;20034;-68
2023/09/29 01:51:29;;;;;;;8.40;4.85;;;16.90;91.20;;;;;;5004806;28;20117;-68
2023/09/29 01:53:55;;;;;;;8.27;5.20;;;16.90;91.30;;;;;;5001098;28;20037;-69
2023/09/29 01:56:21;;;;;;;10.23;5.57;;;16.90;91.30;;;;;;5000635;28;20690;-69
2023/09/29 01:58:48;;;;;;;11.05;5.40;;;16.90;91.40;;;;;;5010100;28;20430;-68
2023/09/29 02:01:14;;;;;;;9.15;5.05;;;16.80;91.40;;;;;;5008948;28;20056;-71
2023/09/29 02:03:41;;;;;;;9.93;5.03;;;16.90;91.20;;;;;;5007265;28;20463;-69
2023/09/29 02:06:06;;;;;;;11.02;5.53;;;16.80;91.40;;;;;;5003742;28;20037;-68
2023/09/29 02:08:32;;;;;;;9.35;5.35;;;16.80;91.40;;;;;;5012692;28;20034;-68
2023/09/29 02:10:58;;;;;;;12.65;5.63;;;16.80;91.50;;;;;;5012695;28;20037;-68
2023/09/29 02:13:23;;;;;;;10.75;5.78;;;16.70;91.60;;;;;;4999175;28;20683;-68
2023/09/29 02:15:48;;;;;;;8.48;5.47;;;16.70;91.70;;;;;;5005718;28;20038;-68
2023/09/29 02:18:14;;;;;;;9.32;6.10;;;16.70;91.80;;;;;;5012073;28;20580;-68
2023/09/29 02:20:46;;;;;;;13.38;6.63;;;16.70;91.80;;;;;;5007091;28;20137;-69
2023/09/29 02:23:13;;;;;;;9.95;6.40;;;16.70;92.00;;;;;;5009680;28;20022;-68
2023/09/29 02:25:40;;;;;;;11.55;6.32;;;16.70;91.90;;;;;;5011821;28;20073;-68
2023/09/29 02:28:05;;;;;;;9.68;6.07;;;16.70;91.70;;;;;;5009582;28;20490;-68
2023/09/29 02:30:31;;;;;;;10.10;6.18;;;16.60;91.80;;;;;;5004522;28;20045;-68
2023/09/29 02:32:57;;;;;;;9.95;5.95;;;16.70;91.90;;;;;;5005071;28;20044;-68
2023/09/29 02:35:23;;;;;;;11.25;6.05;;;16.60;91.90;;;;;;5008280;28;20025;-68
2023/09/29 02:37:49;;;;;;;9.63;6.72;;;16.60;92.00;;;;;;5009177;28;20382;-68
2023/09/29 02:40:18;;;;;;;9.90;6.95;;;16.50;92.10;;;;;;5009938;28;20030;-68
2023/09/29 02:42:46;;;;;;;11.05;6.05;;;16.60;92.10;;;;;;5005699;28;20069;-68
2023/09/29 02:45:12;;;;;;;10.18;6.00;;;16.50;92.20;;;;;;4998743;28;20030;-68
2023/09/29 02:47:39;;;;;;;11.55;6.47;;;16.50;92.20;;;;;;5002927;28;20034;-68
2023/09/29 02:50:09;;;;;;;10.98;6.70;;;16.40;92.50;;;;;;5010043;28;20533;-69
2023/09/29 02:52:36;;;;;;;9.60;6.85;;;16.30;92.70;;;;;;5007603;28;20466;-68
2023/09/29 02:55:04;;;;;;;9.98;6.85;;;16.30;92.60;;;;;;5008542;28;20091;-68
2023/09/29 02:57:30;;;;;;;11.45;7.20;;;16.30;92.70;;;;;;5006427;28;20068;-68
2023/09/29 02:59:57;;;;;;;10.85;7.05;;;16.30;92.80;;;;;;5011018;28;20447;-69
2023/09/29 03:02:23;;;;;;;11.50;7.38;;;16.20;92.90;;;;;;5003008;28;20025;-68
2023/09/29 03:04:48;;;;;;;11.02;7.53;;;16.30;92.80;;;;;;5009751;28;20091;-68
2023/09/29 03:07:14;;;;;;;11.48;7.43;;;16.20;92.70;;;;;;4999663;28;20042;-69
2023/09/29 03:09:41;;;;;;;11.18;8.15;;;16.10;93.00;;;;;;5011083;28;20108;-68
2023/09/29 03:12:07;;;;;;;11.88;7.43;;;16.10;93.20;;;;;;5002218;28;20030;-68
2023/09/29 03:14:32;;;;;;;14.93;7.68;;;16.20;93.20;;;;;;5004272;28;20069;-68
2023/09/29 03:17:01;;;;;;;14.90;8.02;;;16.20;93.20;;;;;;5009797;28;20045;-69
2023/09/29 03:19:27;;;;;;;16.58;8.02;;;16.10;93.30;;;;;;5024182;28;20453;-69
2023/09/29 03:21:53;;;;;;;11.02;7.85;;;16.20;93.30;;;;;;5008624;28;20484;-68
2023/09/29 03:24:18;;;;;;;13.45;8.23;;;16.20;93.20;;;;;;5000835;28;20065;-69
2023/09/29 03:26:44;;;;;;;9.60;7.60;;;16.30;93.10;;;;;;5009573;28;20089;-69
2023/09/29 03:29:11;;;;;;;12.82;8.57;;;16.30;93.10;;;;;;5005665;28;20050;-68
2023/09/29 03:31:36;;;;;;;12.70;8.23;;;16.20;93.20;;;;;;4998944;28;20026;-70
2023/09/29 03:34:02;;;;;;;12.07;8.50;;;16.30;93.10;;;;;;5006856;28;20087;-68
2023/09/29 03:36:30;;;;;;;11.32;7.78;;;16.30;93.00;;;;;;5005186;28;20152;-68
2023/09/29 03:38:56;;;;;;;12.10;8.07;;;16.30;92.80;;;;;;5007648;28;20053;-68
2023/09/29 03:41:23;;;;;;;13.50;7.93;;;16.40;92.70;;;;;;5004931;28;20049;-68
2023/09/29 03:43:52;;;;;;;14.40;7.63;;;16.40;92.70;;;;;;5001247;28;20034;-69
2023/09/29 03:46:24;;;;;;;9.90;7.90;;;16.40;92.80;;;;;;5005869;28;20084;-69
2023/09/29 03:48:49;;;;;;;14.43;8.48;;;16.40;92.70;;;;;;5002472;28;20038;-68
2023/09/29 03:51:25;;;;;;;10.82;7.75;;;16.40;92.70;;;;;;5007392;28;20041;-70
2023/09/29 03:53:52;;;;;;;14.15;7.78;;;16.50;92.70;;;;;;5020198;28;20117;-68
2023/09/29 03:56:18;;;;;;;12.60;7.60;;;16.50;92.60;;;;;;5006123;28;20032;-69
2023/09/29 03:58:44;;;;;;;10.13;7.05;;;16.50;92.60;;;;;;4997843;28;20042;-69
2023/09/29 04:01:10;;;;;;;11.02;7.30;;;16.50;92.60;;;;;;5000492;28;20433;-68
2023/09/29 04:03:36;;;;;;;11.77;7.43;;;16.50;92.60;;;;;;5002037;28;20049;-68
2023/09/29 04:06:02;;;;;;;13.60;8.02;;;16.50;92.60;;;;;;5004956;28;20030;-69
2023/09/29 04:08:29;;;;;;;13.02;7.70;;;16.50;92.70;;;;;;5002670;28;20033;-68
2023/09/29 04:10:55;;;;;;;10.73;7.63;;;16.50;92.70;;;;;;4999942;28;20062;-69
2023/09/29 04:13:21;;;;;;;10.27;7.22;;;16.50;92.80;;;;;;5001822;28;20026;-68
2023/09/29 04:15:46;;;;;;;12.35;7.70;;;16.40;92.80;;;;;;4999422;28;20041;-68
2023/09/29 04:18:12;;;;;;;9.27;7.30;;;16.50;92.90;;;;;;5002560;28;20117;-68
2023/09/29 04:20:37;;;;;;;10.98;8.02;;;16.40;92.90;;;;;;4998231;28;20034;-69
2023/09/29 04:23:06;;;;;;;13.05;8.30;;;16.40;93.00;;;;;;5004299;28;20383;-68
2023/09/29 04:25:31;;;;;;;12.05;7.57;;;16.40;93.10;;;;;;5006151;28;20077;-68
2023/09/29 04:27:57;;;;;;;11.15;7.20;;;16.40;93.20;;;;;;5009933;28;20042;-64
2023/09/29 04:30:23;;;;;;;10.27;7.30;;;16.30;93.40;;;;;;5007379;28;20043;-64
2023/09/29 04:32:48;;;;;;;11.50;7.70;;;16.30;93.30;;;;;;5006977;28;20029;-64
2023/09/29 04:35:13;;;;;;;14.93;8.10;;;16.40;93.30;;;;;;5006374;28;20036;-65
2023/09/29 04:37:40;;;;;;;14.77;8.40;;;16.40;93.40;;;;;;5001524;28;20041;-64
2023/09/29 04:40:06;;;;;;;10.98;7.57;;;16.40;93.50;;;;;;5000724;28;20037;-64
2023/09/29 04:42:32;;;;;;;11.57;7.68;;;16.40;93.40;;;;;;5012632;28;20041;-64
2023/09/29 04:44:58;;;;;;;13.18;7.13;;;16.30;93.40;;;;;;5008007;28;20030;-65
2023/09/29 04:47:23;;;;;;;11.10;7.15;;;16.40;93.50;;;;;;4997488;28;20403;-64
2023/09/29 04:49:49;;;;;;;10.98;7.13;;;16.50;93.50;;;;;;5006847;28;20041;-64
2023/09/29 04:52:15;;;;;;;11.68;7.32;;;16.40;93.40;;;;;;5007830;28;20289;-65
2023/09/29 04:54:41;;;;;;;10.95;7.05;;;16.40;93.50;;;;;;5010622;28;20497;-64
2023/09/29 04:57:06;;;;;;;10.60;7.20;;;16.40;93.60;;;;;;5004545;28;20030;-63
2023/09/29 04:59:32;;;;;;;12.63;7.75;;;16.40;93.60;;;;;;5008589;28;20357;-63
2023/09/29 05:01:57;;;;;;;10.40;7.47;;;16.40;93.70;;;;;;5000546;28;20049;-67
2023/09/29 05:04:23;;;;;;;12.77;7.55;;;16.40;93.80;;;;;;5009316;28;20413;-63
2023/09/29 05:06:48;;;;;;;9.55;7.43;;;16.50;93.90;;;;;;5007488;28;20029;-64
2023/09/29 05:09:15;;;;;;;11.70;7.43;;;16.50;93.80;;;;;;5002808;28;20386;-64
2023/09/29 05:11:41;;;;;;;10.60;7.78;;;16.50;93.90;;;;;;5007882;28;20041;-64
2023/09/29 05:14:06;;;;;;;13.27;8.15;;;16.50;94.00;;;;;;5007835;28;20030;-64
2023/09/29 05:16:31;;;;;;;15.45;8.75;;;16.50;94.00;;;;;;5002269;28;20045;-64
2023/09/29 05:18:58;;;;;;;14.23;8.77;;;16.60;94.00;;;;;;5009722;28;20045;-65
2023/09/29 05:21:26;;;;;;;14.23;8.82;;;16.50;94.10;;;;;;5005540;28;20467;-66
2023/09/29 05:23:52;;;;;;;12.35;8.65;;;16.60;94.10;;;;;;5010147;28;20064;-64
2023/09/29 05:26:17;;;;;;;11.38;8.65;;;16.50;94.10;;;;;;5010181;28;20050;-64
2023/09/29 05:28:43;;;;;;;16.85;8.75;;;16.50;94.20;;;;;;5006008;28;20033;-64
2023/09/29 05:31:09;;;;;;;12.07;9.00;;;16.50;94.30;;;;;;5008725;28;20040;-64
2023/09/29 05:33:35;;;;;;;13.20;8.95;;;16.50;94.40;;;;;;5002153;28;20033;-64
2023/09/29 05:36:00;;;;;;;15.77;9.63;;;16.50;94.50;;;;;;5008450;28;20088;-65
2023/09/29 05:38:26;;;;;;;15.60;10.38;;;16.50;94.40;;;;;;5007836;28;20032;-64
2023/09/29 05:40:52;;;;;;;13.55;9.43;;;16.50;94.40;;;;;;4999485;28;20030;-64
2023/09/29 05:43:18;;;;;;;11.02;9.20;;;16.50;94.40;;;;;;5000040;28;20062;-66
2023/09/29 05:45:47;;;;;;;12.35;8.88;;;16.50;94.40;;;;;;5013751;28;20071;-65
2023/09/29 05:48:13;;;;;;;14.13;9.68;;;16.50;94.50;;;;;;5010541;28;20089;-64
2023/09/29 05:50:39;;;;;;;13.00;9.15;;;16.50;94.50;;;;;;5005532;28;20042;-64
2023/09/29 05:53:05;;;;;;;15.27;9.40;;;16.60;94.50;;;;;;5007948;28;20030;-64
2023/09/29 05:55:30;;;;;;;15.18;9.02;;;16.60;94.60;;;;;;5013082;28;20387;-64
2023/09/29 05:57:56;;;;;;;14.23;9.38;;;16.60;94.60;;;;;;5005265;28;20053;-66
2023/09/29 06:00:24;;;;;;;11.45;9.00;;;16.60;94.60;;;;;;5004473;28;20066;-64
2023/09/29 06:02:50;;;;;;;13.18;9.45;;;16.60;94.60;;;;;;5010361;28;20034;-63
2023/09/29 06:05:15;;;;;;;12.68;10.25;;;16.60;94.60;;;;;;5008058;28;20129;-63
2023/09/29 06:07:41;;;;;;;11.35;9.05;;;16.60;94.60;;;;;;5007293;28;20073;-65
2023/09/29 06:10:07;;;;;;;15.15;10.30;;;16.70;94.40;;;;;;5002710;28;20129;-65
2023/09/29 06:12:33;;;;;;;13.13;10.77;;;16.70;94.40;;;;;;5010288;28;20030;-64
2023/09/29 06:14:58;;;;;;;16.98;10.25;;;16.70;94.30;;;;;;5006944;28;20061;-66
2023/09/29 06:17:24;;;;;;;15.35;9.25;;;16.80;94.30;;;;;;5006209;28;20073;-65
2023/09/29 06:19:50;;;;;;;15.05;10.18;;;16.70;94.30;;;;;;5005202;28;20040;-64
2023/09/29 06:22:16;;;;;;;13.43;9.93;;;16.70;94.30;;;;;;5007051;28;20096;-64
2023/09/29 06:24:43;;;;;;;16.38;9.73;;;16.80;94.20;;;;;;5011114;28;20057;-64
2023/09/29 06:27:09;;;;;;;15.05;9.57;;;16.80;94.30;;;;;;4999104;28;20038;-64
2023/09/29 06:29:35;;;;;;;12.73;9.75;;;16.90;94.20;;;;;;5005887;28;22950;-64
2023/09/29 06:32:00;;;;;;;13.70;9.57;;;17.00;94.10;;;;;;5010055;28;20038;-63
2023/09/29 06:34:26;;;;;;;12.63;9.57;;;16.90;94.00;;;;;;5000817;28;20030;-63
2023/09/29 06:36:51;;;;;;;16.25;9.27;;;17.00;93.90;;;;;;4998070;28;20045;-64
2023/09/29 06:39:17;;;;;;;13.43;8.93;;;17.00;93.80;;;;;;5009284;28;20092;-64
2023/09/29 06:41:42;;;;;;;19.00;8.55;;;17.00;93.80;;;;;;4997996;28;20143;-64
2023/09/29 06:44:08;;;;;;;12.93;8.70;;;17.10;93.70;;;;;;5002617;28;20030;-65
2023/09/29 06:46:33;;;;;;;14.85;9.15;;;17.10;93.70;;;;;;5000330;28;20654;-64
2023/09/29 06:49:01;;;;;;;17.25;9.02;;;17.20;93.60;;;;;;5002341;28;20153;-65
2023/09/29 06:51:27;;;;;;;12.65;8.48;;;17.20;93.50;;;;;;5000584;28;20018;-65
2023/09/29 06:53:52;;;;;;;13.68;7.93;;;17.20;93.40;;;;;;5004333;28;20084;-64
2023/09/29 06:56:18;;;;;;;13.95;8.25;;;17.20;93.40;;;;;;5008448;28;20032;-64
2023/09/29 06:58:44;;;;;;;10.50;8.38;;;17.30;93.30;;;;;;5002280;28;20034;-64
2023/09/29 07:01:09;;;;;;;12.18;7.90;;;17.30;93.30;;;;;;5005374;28;20117;-64
2023/09/29 07:03:35;;;;;;;11.98;8.07;;;17.30;93.20;;;;;;5006607;28;20394;-64
2023/09/29 07:06:01;;;;;;;9.82;7.57;;;17.30;93.10;;;;;;5003571;28;20041;-65
2023/09/29 07:08:27;;;;;;;11.38;7.82;;;17.30;93.10;;;;;;5007901;28;20470;-65
2023/09/29 07:10:53;;;;;;;11.07;7.10;;;17.40;93.00;;;;;;5001519;28;20368;-64
2023/09/29 07:13:19;;;;;;;10.60;7.07;;;17.40;92.90;;;;;;5002820;28;20038;-64
2023/09/29 07:15:47;;;;;;;13.18;7.03;;;17.50;92.70;;;;;;4997257;28;20068;-64
2023/09/29 07:18:13;;;;;;;11.02;6.53;;;17.50;92.70;;;;;;5010927;28;20405;-64
2023/09/29 07:20:44;;;;;;;9.10;6.40;;;17.50;92.40;;;;;;5002842;28;20038;-64
2023/09/29 07:23:10;;;;;;;11.32;6.18;;;17.70;92.20;;;;;;5006830;28;20073;-64
2023/09/29 07:25:39;;;;;;;11.13;5.57;;;17.80;91.90;;;;;;4999724;28;20082;-64
2023/09/29 07:28:13;;;;;;;10.68;6.25;;;18.00;91.60;;;;;;5005197;28;20068;-65
2023/09/29 07:30:41;;;;;;;10.13;5.38;;;18.00;91.00;;;;;;5001503;28;20065;-64
2023/09/29 07:33:06;;;;;;;11.05;5.32;;;18.10;90.90;;;;;;5005157;28;20079;-65
2023/09/29 07:35:32;;;;;;;8.23;5.18;;;18.20;90.60;;;;;;5014104;28;20532;-65
2023/09/29 07:38:00;;;;;;;11.93;5.07;;;18.20;90.70;;;;;;4996902;28;20046;-64
2023/09/29 07:40:25;;;;;;;8.05;4.30;;;18.20;90.60;;;;;;5000711;28;20033;-64
2023/09/29 07:42:51;;;;;;;8.02;5.20;;;18.10;90.10;;;;;;5005496;28;20034;-64
2023/09/29 07:45:18;;;;;;;8.05;4.95;;;18.10;90.50;;;;;;5006257;28;20033;-64
2023/09/29 07:47:44;;;;;;;6.65;4.32;;;18.10;90.20;;;;;;5006533;28;20494;-65
2023/09/29 07:50:10;;;;;;;8.82;4.38;;;18.20;90.30;;;;;;5004834;28;20033;-64
2023/09/29 07:52:37;;;;;;;6.72;3.80;;;18.30;90.30;;;;;;5000918;28;20091;-64
2023/09/29 07:55:05;;;;;;;8.25;4.35;;;18.40;90.20;;;;;;5012072;28;20038;-64
2023/09/29 07:57:30;;;;;;;8.30;4.70;;;18.40;89.60;;;;;;5009495;28;20030;-64
2023/09/29 07:59:55;;;;;;;6.40;3.80;;;18.60;89.40;;;;;;5011663;28;20088;-64
2023/09/29 08:02:21;;;;;;;6.32;4.30;;;18.70;89.20;;;;;;5005798;28;20097;-64
2023/09/29 08:04:46;;;;;;;5.72;3.75;;;18.70;89.10;;;;;;5008059;28;20163;-65
2023/09/29 08:07:13;;;;;;;6.70;3.85;;;18.80;88.60;;;;;;5011860;28;20096;-67
2023/09/29 08:09:38;;;;;;;6.47;3.50;;;18.80;88.50;;;;;;5008937;28;20445;-64
2023/09/29 08:12:04;;;;;;;7.32;3.75;;;18.80;88.20;;;;;;5006021;28;20036;-64
2023/09/29 08:14:31;;;;;;;5.45;3.17;;;18.90;87.90;;;;;;5003197;28;20034;-65
2023/09/29 08:16:57;;;;;;;9.40;3.72;;;19.00;88.50;;;;;;5008927;28;20033;-64
2023/09/29 08:19:22;;;;;;;5.72;3.20;;;19.00;87.90;;;;;;5027267;28;20033;-64
2023/09/29 08:21:49;;;;;;;7.28;3.45;;;19.10;88.20;;;;;;5006960;28;20084;-64
2023/09/29 08:24:15;;;;;;;6.28;3.38;;;19.10;87.50;;;;;;5012396;28;20363;-65
2023/09/29 08:26:40;;;;;;;5.75;3.00;;;19.30;87.90;;;;;;5008764;28;20056;-65
2023/09/29 08:29:10;;;;;;;5.80;3.38;;;19.30;87.40;;;;;;5007033;28;20415;-65
2023/09/29 08:31:35;;;;;;;7.05;3.10;;;19.30;86.90;;;;;;5010007;28;20659;-65
2023/09/29 08:34:02;;;;;;;6.40;3.10;;;19.40;87.10;;;;;;5008770;28;20280;-65
2023/09/29 08:36:27;;;;;;;6.15;3.25;;;19.40;87.10;;;;;;5008242;28;20494;-64
2023/09/29 08:38:53;;;;;;;7.65;3.30;;;19.40;87.10;;;;;;5011297;28;20346;-64
2023/09/29 08:41:25;;;;;;;5.93;3.05;;;19.50;87.00;;;;;;5007610;28;20055;-65
2023/09/29 08:43:51;;;;;;;4.70;2.58;;;19.60;87.00;;;;;;5002305;28;20037;-64
2023/09/29 08:46:18;;;;;;;5.50;2.83;;;19.70;86.30;;;;;;5007210;28;20028;-64
2023/09/29 08:48:46;;;;;;;4.93;2.40;;;19.80;86.20;;;;;;5006879;28;20100;-66
2023/09/29 08:51:13;;;;;;;7.72;3.00;;;20.20;86.20;;;;;;5011019;28;20033;-65
2023/09/29 08:53:43;;;;;;;4.78;2.33;;;20.60;84.80;;;;;;5010734;28;20045;-64
2023/09/29 08:56:14;;;;;;;5.35;2.90;;;20.60;84.10;;;;;;5010517;28;20305;-64
2023/09/29 08:58:40;;;;;;;6.28;2.38;;;20.50;83.80;;;;;;5007202;28;20029;-65
2023/09/29 09:01:05;;;;;;;4.38;2.42;;;20.50;84.10;;;;;;5000671;28;20040;-64
2023/09/29 09:03:31;;;;;;;6.15;2.63;;;20.60;83.60;;;;;;5009538;28;20335;-64
2023/09/29 09:05:56;;;;;;;4.55;2.25;;;20.50;83.70;;;;;;5008652;28;20018;-65
2023/09/29 09:08:23;;;;;;;5.10;2.50;;;20.50;84.20;;;;;;5005939;28;20038;-64
2023/09/29 09:10:58;;;;;;;4.18;2.20;;;20.50;83.00;;;;;;5002257;28;20045;-65
2023/09/29 09:13:26;;;;;;;6.60;2.40;;;20.50;83.50;;;;;;5006326;28;20022;-64
2023/09/29 09:15:59;;;;;;;6.45;2.42;;;20.50;83.60;;;;;;5009138;28;20022;-64
2023/09/29 09:18:28;;;;;;;4.47;2.08;;;20.40;83.80;;;;;;5011906;28;20030;-64
2023/09/29 09:20:54;;;;;;;3.85;2.13;;;20.40;83.80;;;;;;5004841;28;20034;-66
2023/09/29 09:23:20;;;;;;;4.28;2.25;;;20.30;84.10;;;;;;5007237;28;20037;-64
2023/09/29 09:25:46;;;;;;;5.28;2.38;;;20.50;84.50;;;;;;5011987;28;20386;-64
2023/09/29 09:28:16;;;;;;;3.60;2.22;;;20.60;84.50;;;;;;5003081;28;20034;-65
2023/09/29 09:30:42;;;;;;;4.93;2.38;;;20.50;83.60;;;;;;5011505;28;20045;-64
2023/09/29 09:33:21;;;;;;;7.63;2.42;;;20.40;84.00;;;;;;5010199;28;20026;-65
2023/09/29 09:35:50;;;;;;;6.15;2.00;;;20.30;83.50;;;;;;5008253;28;20120;-65
2023/09/29 09:38:15;;;;;;;5.55;2.47;;;20.20;83.60;;;;;;5011849;28;20348;-64
2023/09/29 09:40:44;;;;;;;4.35;2.33;;;20.10;83.60;;;;;;5012269;28;20030;-65
2023/09/29 09:43:10;;;;;;;3.83;2.17;;;20.00;84.00;;;;;;4999917;28;20026;-64
2023/09/29 09:45:39;;;;;;;3.22;1.75;;;20.00;84.80;;;;;;5007031;28;20030;-65
2023/09/29 09:48:06;;;;;;;4.45;1.98;;;20.00;84.50;;;;;;5006396;28;20460;-68
2023/09/29 09:50:33;;;;;;;5.75;2.13;;;19.90;84.70;;;;;;5004816;28;20034;-65
2023/09/29 09:53:02;;;;;;;5.15;2.20;;;19.90;85.30;;;;;;5010985;28;20033;-65
2023/09/29 09:55:50;;;;;;;3.10;1.85;;;19.70;84.80;;;;;;5009645;28;20386;-66
2023/09/29 09:58:17;;;;;;;5.82;2.58;;;19.80;85.20;;;;;;5004352;28;20040;-65
2023/09/29 10:00:45;;;;;;;4.18;2.13;;;19.80;85.50;;;;;;5009128;28;20036;-66
2023/09/29 10:03:12;;;;;;;5.30;2.38;;;19.80;85.70;;;;;;5010650;28;20080;-66
2023/09/29 10:05:41;;;;;;;5.93;2.47;;;19.80;85.80;;;;;;5010947;28;20026;-64
2023/09/29 10:08:07;;;;;;;7.10;2.28;;;19.70;86.10;;;;;;5010025;28;20084;-65
2023/09/29 10:10:42;;;;;;;5.43;2.42;;;19.70;85.90;;;;;;5010478;28;20030;-64
2023/09/29 10:13:11;;;;;;;6.20;2.45;;;19.80;85.50;;;;;;5001986;28;20030;-65
2023/09/29 10:15:37;;;;;;;5.45;2.20;;;19.80;85.60;;;;;;4999829;28;20499;-65
2023/09/29 10:18:23;;;;;;;4.68;2.33;;;19.80;85.40;;;;;;5000949;28;20382;-65
2023/09/29 10:21:00;;;;;;;5.88;2.05;;;20.00;86.00;;;;;;5004078;28;20046;-64
2023/09/29 10:23:26;;;;;;;4.38;2.00;;;19.90;85.40;;;;;;5011503;28;20030;-65
2023/09/29 10:26:04;;;;;;;4.97;2.20;;;20.10;85.70;;;;;;5011810;28;20120;-64
2023/09/29 10:28:33;;;;;;;5.40;1.80;;;20.40;84.90;;;;;;4997891;28;20026;-64
2023/09/29 10:31:13;;;;;;;5.43;2.15;;;20.60;84.60;;;;;;5010105;28;20037;-65
2023/09/29 10:33:53;;;;;;;4.72;1.90;;;20.80;83.80;;;;;;5007896;28;20038;-65
2023/09/29 10:36:24;;;;;;;6.30;2.10;;;20.90;83.60;;;;;;5007688;28;20475;-66
2023/09/29 10:38:50;;;;;;;3.35;1.65;;;21.10;83.90;;;;;;5011153;28;20045;-64
2023/09/29 10:41:18;;;;;;;4.00;1.80;;;21.10;82.50;;;;;;5012044;28;20026;-65
2023/09/29 10:43:48;;;;;;;3.22;1.70;;;21.30;83.20;;;;;;5001898;28;20084;-66
2023/09/29 10:46:15;;;;;;;3.88;1.73;;;21.60;81.50;;;;;;5011008;28;20106;-64
2023/09/29 10:48:49;;;;;;;6.55;2.13;;;21.70;81.70;;;;;;5007760;28;20046;-65
2023/09/29 10:51:45;;;;;;;4.53;1.75;;;21.60;82.00;;;;;;5009710;28;20080;-64
2023/09/29 10:54:11;;;;;;;4.15;1.83;;;21.70;81.80;;;;;;5004869;28;20046;-64
2023/09/29 10:56:37;;;;;;;3.65;1.80;;;21.70;81.60;;;;;;5009586;28;20056;-67
2023/09/29 10:59:07;;;;;;;2.20;1.50;;;21.60;81.30;;;;;;5008001;28;20034;-64
2023/09/29 11:01:34;;;;;;;3.75;1.40;;;21.90;80.60;;;;;;5000920;28;20018;-64
2023/09/29 11:04:05;;;;;;;4.15;1.70;;;22.00;80.40;;;;;;5001484;28;20034;-65
2023/09/29 11:06:39;;;;;;;5.70;1.88;;;21.90;80.00;;;;;;5007842;28;20025;-64
2023/09/29 11:09:06;;;;;;;4.63;1.55;;;21.90;80.80;;;;;;5011696;28;20057;-65
2023/09/29 11:11:36;;;;;;;4.95;1.50;;;22.00;80.30;;;;;;5011290;28;20032;-64
2023/09/29 11:14:05;;;;;;;3.07;1.60;;;22.10;80.50;;;;;;5004555;28;20394;-65
2023/09/29 11:16:32;;;;;;;4.88;1.80;;;22.30;80.20;;;;;;5011392;28;20033;-65
2023/09/29 11:19:11;;;;;;;4.53;1.67;;;22.50;80.20;;;;;;5011273;28;20426;-65
2023/09/29 11:21:38;;;;;;;6.53;1.90;;;22.90;77.70;;;;;;5007207;28;20029;-65
2023/09/29 11:24:09;;;;;;;4.07;1.55;;;23.00;77.00;;;;;;5005447;28;20475;-66
2023/09/29 11:26:39;;;;;;;2.15;1.38;;;23.50;77.70;;;;;;5010478;28;20057;-67
2023/09/29 11:29:04;;;;;;;4.78;1.42;;;23.20;75.30;;;;;;5004409;28;20091;-65
2023/09/29 11:31:30;;;;;;;3.08;1.40;;;23.10;75.70;;;;;;5009955;28;20033;-64
2023/09/29 11:33:56;;;;;;;5.65;1.40;;;22.90;76.20;;;;;;5000493;28;20026;-65
2023/09/29 11:36:23;;;;;;;4.15;1.52;;;22.80;77.10;;;;;;5007316;28;20044;-64
2023/09/29 11:38:52;;;;;;;6.05;1.73;;;22.70;76.60;;;;;;5006343;28;20041;-65
2023/09/29 11:41:18;;;;;;;3.75;1.63;;;22.80;78.00;;;;;;5008428;28;20045;-66
2023/09/29 11:43:45;;;;;;;2.35;1.33;;;23.10;76.50;;;;;;5003467;28;20042;-65
2023/09/29 11:46:11;;;;;;;7.05;1.60;;;23.30;76.00;;;;;;5008448;28;20040;-66
2023/09/29 11:48:37;;;;;;;3.28;1.52;;;23.50;76.20;;;;;;5010352;28;20033;-65
2023/09/29 11:51:03;;;;;;;5.22;1.75;;;23.60;75.20;;;;;;5006156;28;20516;-65
2023/09/29 11:53:29;;;;;;;2.83;1.45;;;23.50;74.10;;;;;;5007884;28;20030;-65
2023/09/29 11:55:56;;;;;;;3.67;1.40;;;24.20;73.90;;;;;;5003311;28;20524;-65
2023/09/29 11:58:23;;;;;;;4.03;1.73;;;24.50;72.70;;;;;;5001409;28;20030;-65
2023/09/29 12:00:48;;;;;;;1.67;1.00;;;24.90;72.60;;;;;;5007135;28;20030;-65
2023/09/29 12:03:16;;;;;;;3.80;1.60;;;25.00;70.30;;;;;;5009587;28;20040;-66
2023/09/29 12:05:44;;;;;;;3.75;1.20;;;25.10;71.60;;;;;;5005592;28;20033;-64
2023/09/29 12:08:10;;;;;;;3.65;1.52;;;25.10;70.30;;;;;;5000224;28;20040;-65
2023/09/29 12:10:36;;;;;;;2.97;1.40;;;25.10;69.80;;;;;;5002842;28;20504;-65
2023/09/29 12:13:01;;;;;;;2.95;1.55;;;25.00;70.10;;;;;;4997135;28;20061;-65
2023/09/29 12:15:28;;;;;;;3.00;1.35;;;25.40;70.30;;;;;;5002262;28;20108;-65
2023/09/29 12:17:54;;;;;;;3.40;1.60;;;25.50;70.90;;;;;;5002916;28;20041;-68
2023/09/29 12:20:21;;;;;;;3.90;1.77;;;25.00;70.50;;;;;;5001038;28;20038;-65
2023/09/29 12:22:47;;;;;;;4.18;1.58;;;24.80;71.20;;;;;;5000280;28;20026;-65
2023/09/29 12:25:14;;;;;;;4.18;1.50;;;24.60;70.10;;;;;;5000911;28;20049;-64
2023/09/29 12:27:42;;;;;;;3.85;1.80;;;24.40;72.10;;;;;;4996209;28;20042;-65
2023/09/29 12:30:09;;;;;;;3.75;1.38;;;24.40;72.30;;;;;;4995910;28;20041;-65
2023/09/29 12:32:36;;;;;;;5.45;1.77;;;24.30;73.10;;;;;;5000063;28;20140;-65
2023/09/29 12:35:03;;;;;;;3.72;1.50;;;24.30;74.60;;;;;;4999697;28;20057;-64
2023/09/29 12:37:28;;;;;;;2.88;1.52;;;24.00;73.50;;;;;;4997819;28;20035;-66
2023/09/29 12:39:54;;;;;;;4.95;1.60;;;24.20;74.20;;;;;;4998785;28;20110;-66
2023/09/29 12:42:20;;;;;;;3.67;1.35;;;24.50;72.90;;;;;;4998105;28;20091;-66